sensor_id;sensor_type;location;lat;lon;timestamp;pressure;altitude;pressure_sealevel;temperature;humidity
57594;BME280;43423;46.510;6.686;2024-03-08T00:02:15;96041.59;;;2.72;100.00
57594;BME280;43423;46.510;6.686;2024-03-08T00:04:40;96038.22;;;2.68;100.00
57594;BME280;43423;46.510;6.686;2024-03-08T00:07:06;96042.22;;;2.76;100.00
57594;BME280;43423;46.510;6.686;2024-03-08T00:09:32;96033.53;;;2.82;100.00
57594;BME280;43423;46.510;6.686;2024-03-08T00:11:58;96035.50;;;2.81;100.00
57594;BME280;43423;46.510;6.686;2024-03-08T00:14:24;96037.91;;;2.79;100.00
57594;BME280;43423;46.510;6.686;2024-03-08T00:16:49;96039.09;;;2.78;100.00
57594;BME280;43423;46.510;6.686;2024-03-08T00:19:15;96034.22;;;2.73;100.00
57594;BME280;43423;46.510;6.686;2024-03-08T00:21:40;96029.84;;;2.75;100.00
57594;BME280;43423;46.510;6.686;2024-03-08T00:24:07;96027.81;;;2.79;100.00
57594;BME280;43423;46.510;6.686;2024-03-08T00:26:33;96024.56;;;2.72;100.00
57594;BME280;43423;46.510;6.686;2024-03-08T00:28:59;96020.19;;;2.74;100.00
57594;BME280;43423;46.510;6.686;2024-03-08T00:31:24;96012.09;;;2.62;100.00
57594;BME280;43423;46.510;6.686;2024-03-08T00:33:50;96012.72;;;2.66;100.00
57594;BME280;43423;46.510;6.686;2024-03-08T00:36:17;96010.44;;;2.64;100.00
57594;BME280;43423;46.510;6.686;2024-03-08T00:38:43;96012.19;;;2.58;100.00
57594;BME280;43423;46.510;6.686;2024-03-08T00:41:09;96014.16;;;2.58;100.00
57594;BME280;43423;46.510;6.686;2024-03-08T00:43:34;96010.25;;;2.46;100.00
57594;BME280;43423;46.510;6.686;2024-03-08T00:46:00;96011.56;;;2.54;100.00
57594;BME280;43423;46.510;6.686;2024-03-08T00:48:26;96011.56;;;2.54;100.00
57594;BME280;43423;46.510;6.686;2024-03-08T00:50:53;96007.53;;;2.59;100.00
57594;BME280;43423;46.510;6.686;2024-03-08T00:53:19;96001.78;;;2.57;100.00
57594;BME280;43423;46.510;6.686;2024-03-08T00:55:44;95996.44;;;2.66;100.00
57594;BME280;43423;46.510;6.686;2024-03-08T00:58:12;95995.81;;;2.62;99.51
57594;BME280;43423;46.510;6.686;2024-03-08T01:00:38;95996.88;;;2.64;99.66
57594;BME280;43423;46.510;6.686;2024-03-08T01:03:04;96001.75;;;2.69;99.84
57594;BME280;43423;46.510;6.686;2024-03-08T01:05:30;95988.19;;;2.57;99.51
57594;BME280;43423;46.510;6.686;2024-03-08T01:07:56;95987.34;;;2.47;100.00
57594;BME280;43423;46.510;6.686;2024-03-08T01:10:21;95989.19;;;2.50;100.00
57594;BME280;43423;46.510;6.686;2024-03-08T01:12:48;95982.91;;;2.40;100.00
57594;BME280;43423;46.510;6.686;2024-03-08T01:15:15;95988.78;;;2.39;100.00
57594;BME280;43423;46.510;6.686;2024-03-08T01:17:41;95982.50;;;2.29;100.00
57594;BME280;43423;46.510;6.686;2024-03-08T01:20:07;95980.53;;;2.30;100.00
57594;BME280;43423;46.510;6.686;2024-03-08T01:22:36;95984.22;;;2.23;100.00
57594;BME280;43423;46.510;6.686;2024-03-08T01:25:02;95973.69;;;2.25;100.00
57594;BME280;43423;46.510;6.686;2024-03-08T01:27:30;95970.31;;;2.34;100.00
57594;BME280;43423;46.510;6.686;2024-03-08T01:29:56;95972.38;;;2.42;100.00
57594;BME280;43423;46.510;6.686;2024-03-08T01:32:22;95979.44;;;2.40;100.00
57594;BME280;43423;46.510;6.686;2024-03-08T01:34:48;95958.41;;;2.31;100.00
57594;BME280;43423;46.510;6.686;2024-03-08T01:37:14;95966.44;;;2.22;100.00
57594;BME280;43423;46.510;6.686;2024-03-08T01:39:40;95961.00;;;2.09;100.00
57594;BME280;43423;46.510;6.686;2024-03-08T01:42:05;95955.69;;;2.06;100.00
57594;BME280;43423;46.510;6.686;2024-03-08T01:44:31;95950.50;;;1.99;100.00
57594;BME280;43423;46.510;6.686;2024-03-08T01:46:57;95953.84;;;2.03;100.00
57594;BME280;43423;46.510;6.686;2024-03-08T01:49:24;95954.28;;;2.01;100.00
57594;BME280;43423;46.510;6.686;2024-03-08T01:51:51;95959.38;;;1.86;100.00
57594;BME280;43423;46.510;6.686;2024-03-08T01:54:18;95950.50;;;1.99;100.00
57594;BME280;43423;46.510;6.686;2024-03-08T01:56:45;95951.25;;;1.99;100.00
57594;BME280;43423;46.510;6.686;2024-03-08T01:59:12;95953.31;;;1.82;100.00
57594;BME280;43423;46.510;6.686;2024-03-08T02:01:40;95945.78;;;1.74;100.00
57594;BME280;43423;46.510;6.686;2024-03-08T02:04:06;95950.38;;;1.77;100.00
57594;BME280;43423;46.510;6.686;2024-03-08T02:06:33;95945.38;;;1.75;100.00
57594;BME280;43423;46.510;6.686;2024-03-08T02:08:59;95940.94;;;1.68;100.00
57594;BME280;43423;46.510;6.686;2024-03-08T02:11:25;95941.44;;;1.63;100.00
57594;BME280;43423;46.510;6.686;2024-03-08T02:13:50;95934.09;;;1.64;100.00
57594;BME280;43423;46.510;6.686;2024-03-08T02:16:22;95925.00;;;1.71;100.00
57594;BME280;43423;46.510;6.686;2024-03-08T02:18:48;95920.66;;;1.60;100.00
57594;BME280;43423;46.510;6.686;2024-03-08T02:21:16;95922.94;;;1.62;100.00
57594;BME280;43423;46.510;6.686;2024-03-08T02:23:43;95901.44;;;1.55;100.00
57594;BME280;43423;46.510;6.686;2024-03-08T02:26:09;95916.50;;;1.56;100.00
57594;BME280;43423;46.510;6.686;2024-03-08T02:28:35;95900.81;;;1.51;100.00
57594;BME280;43423;46.510;6.686;2024-03-08T02:31:01;95904.38;;;1.48;100.00
57594;BME280;43423;46.510;6.686;2024-03-08T02:33:28;95900.16;;;1.47;100.00
57594;BME280;43423;46.510;6.686;2024-03-08T02:35:58;95913.25;;;1.35;100.00
57594;BME280;43423;46.510;6.686;2024-03-08T02:38:23;95901.31;;;1.33;100.00
57594;BME280;43423;46.510;6.686;2024-03-08T02:40:51;95904.56;;;1.40;100.00
57594;BME280;43423;46.510;6.686;2024-03-08T02:43:18;95903.06;;;1.39;100.00
57594;BME280;43423;46.510;6.686;2024-03-08T02:45:44;95897.88;;;1.45;100.00
57594;BME280;43423;46.510;6.686;2024-03-08T02:48:14;95886.50;;;1.50;100.00
57594;BME280;43423;46.510;6.686;2024-03-08T02:50:40;95888.75;;;1.39;100.00
57594;BME280;43423;46.510;6.686;2024-03-08T02:53:07;95887.78;;;1.46;100.00
57594;BME280;43423;46.510;6.686;2024-03-08T02:55:33;95892.03;;;1.47;100.00
57594;BME280;43423;46.510;6.686;2024-03-08T02:58:04;95893.22;;;1.46;100.00
57594;BME280;43423;46.510;6.686;2024-03-08T03:00:30;95894.19;;;1.39;100.00
57594;BME280;43423;46.510;6.686;2024-03-08T03:02:59;95896.00;;;1.29;100.00
57594;BME280;43423;46.510;6.686;2024-03-08T03:05:25;95878.69;;;1.39;100.00
57594;BME280;43423;46.510;6.686;2024-03-08T03:07:51;95888.78;;;1.52;100.00
57594;BME280;43423;46.510;6.686;2024-03-08T03:10:17;95879.56;;;1.62;100.00
57594;BME280;43423;46.510;6.686;2024-03-08T03:12:44;95873.91;;;1.56;100.00
57594;BME280;43423;46.510;6.686;2024-03-08T03:15:14;95869.03;;;1.64;100.00
57594;BME280;43423;46.510;6.686;2024-03-08T03:17:40;95866.78;;;1.62;100.00
57594;BME280;43423;46.510;6.686;2024-03-08T03:20:07;95864.06;;;1.62;100.00
57594;BME280;43423;46.510;6.686;2024-03-08T03:22:38;95864.72;;;1.54;100.00
57594;BME280;43423;46.510;6.686;2024-03-08T03:25:04;95851.94;;;1.54;100.00
57594;BME280;43423;46.510;6.686;2024-03-08T03:27:32;95851.38;;;1.47;100.00
57594;BME280;43423;46.510;6.686;2024-03-08T03:29:58;95853.00;;;1.44;100.00
57594;BME280;43423;46.510;6.686;2024-03-08T03:32:24;95845.53;;;1.35;100.00
57594;BME280;43423;46.510;6.686;2024-03-08T03:34:49;95844.00;;;1.22;100.00
57594;BME280;43423;46.510;6.686;2024-03-08T03:37:19;95845.41;;;1.26;100.00
57594;BME280;43423;46.510;6.686;2024-03-08T03:39:45;95848.84;;;1.14;100.00
57594;BME280;43423;46.510;6.686;2024-03-08T03:42:17;95839.22;;;1.13;100.00
57594;BME280;43423;46.510;6.686;2024-03-08T03:44:47;95834.44;;;1.17;100.00
57594;BME280;43423;46.510;6.686;2024-03-08T03:47:16;95842.47;;;1.33;100.00
57594;BME280;43423;46.510;6.686;2024-03-08T03:49:42;95834.69;;;1.35;100.00
57594;BME280;43423;46.510;6.686;2024-03-08T03:52:08;95837.28;;;1.26;100.00
57594;BME280;43423;46.510;6.686;2024-03-08T03:54:34;95838.59;;;1.22;100.00
57594;BME280;43423;46.510;6.686;2024-03-08T03:57:00;95842.81;;;1.23;100.00
57594;BME280;43423;46.510;6.686;2024-03-08T03:59:26;95842.03;;;1.22;100.00
57594;BME280;43423;46.510;6.686;2024-03-08T04:01:53;95834.91;;;1.28;100.00
57594;BME280;43423;46.510;6.686;2024-03-08T04:04:20;95837.84;;;1.47;100.00
57594;BME280;43423;46.510;6.686;2024-03-08T04:06:46;95845.09;;;1.37;100.00
57594;BME280;43423;46.510;6.686;2024-03-08T04:09:12;95837.81;;;1.34;100.00
57594;BME280;43423;46.510;6.686;2024-03-08T04:11:38;95831.66;;;1.33;100.00
57594;BME280;43423;46.510;6.686;2024-03-08T04:14:04;95842.59;;;1.30;100.00
57594;BME280;43423;46.510;6.686;2024-03-08T04:16:31;95845.84;;;1.37;100.00
57594;BME280;43423;46.510;6.686;2024-03-08T04:18:57;95836.97;;;1.37;100.00
57594;BME280;43423;46.510;6.686;2024-03-08T04:21:23;95841.84;;;1.29;100.00
57594;BME280;43423;46.510;6.686;2024-03-08T04:23:49;95846.78;;;1.18;100.00
57594;BME280;43423;46.510;6.686;2024-03-08T04:26:14;95842.16;;;1.19;100.00
57594;BME280;43423;46.510;6.686;2024-03-08T04:28:40;95843.03;;;1.28;100.00
57594;BME280;43423;46.510;6.686;2024-03-08T04:31:06;95842.47;;;1.33;100.00
57594;BME280;43423;46.510;6.686;2024-03-08T04:33:32;95839.34;;;1.35;100.00
57594;BME280;43423;46.510;6.686;2024-03-08T04:36:01;95834.56;;;1.26;100.00
57594;BME280;43423;46.510;6.686;2024-03-08T04:38:27;95824.28;;;1.21;100.00
57594;BME280;43423;46.510;6.686;2024-03-08T04:40:52;95813.44;;;1.21;100.00
57594;BME280;43423;46.510;6.686;2024-03-08T04:43:19;95819.28;;;1.32;100.00
57594;BME280;43423;46.510;6.686;2024-03-08T04:45:45;95809.88;;;1.37;100.00
57594;BME280;43423;46.510;6.686;2024-03-08T04:48:11;95823.31;;;1.40;100.00
57594;BME280;43423;46.510;6.686;2024-03-08T04:50:37;95822.03;;;1.45;100.00
57594;BME280;43423;46.510;6.686;2024-03-08T04:53:03;95822.88;;;1.29;100.00
57594;BME280;43423;46.510;6.686;2024-03-08T04:55:29;95820.25;;;1.26;100.00
57594;BME280;43423;46.510;6.686;2024-03-08T04:57:55;95824.72;;;1.32;100.00
57594;BME280;43423;46.510;6.686;2024-03-08T05:00:21;95818.75;;;1.37;100.00
57594;BME280;43423;46.510;6.686;2024-03-08T05:02:47;95814.34;;;1.44;100.00
57594;BME280;43423;46.510;6.686;2024-03-08T05:05:13;95812.47;;;1.28;100.00
57594;BME280;43423;46.510;6.686;2024-03-08T05:07:39;95810.09;;;1.30;100.00
57594;BME280;43423;46.510;6.686;2024-03-08T05:10:06;95798.94;;;1.28;100.00
57594;BME280;43423;46.510;6.686;2024-03-08T05:12:35;95791.22;;;1.26;100.00
57594;BME280;43423;46.510;6.686;2024-03-08T05:15:01;95792.22;;;1.32;100.00
57594;BME280;43423;46.510;6.686;2024-03-08T05:17:27;95791.78;;;1.34;100.00
57594;BME280;43423;46.510;6.686;2024-03-08T05:19:53;95790.47;;;1.38;100.00
57594;BME280;43423;46.510;6.686;2024-03-08T05:22:19;95780.19;;;1.33;100.00
57594;BME280;43423;46.510;6.686;2024-03-08T05:24:44;95787.66;;;1.29;100.00
57594;BME280;43423;46.510;6.686;2024-03-08T05:27:10;95783.31;;;1.32;100.00
57594;BME280;43423;46.510;6.686;2024-03-08T05:29:36;95780.41;;;1.39;100.00
57594;BME280;43423;46.510;6.686;2024-03-08T05:32:02;95776.94;;;1.38;100.00
57594;BME280;43423;46.510;6.686;2024-03-08T05:34:29;95777.16;;;1.31;100.00
57594;BME280;43423;46.510;6.686;2024-03-08T05:36:55;95771.09;;;1.27;100.00
57594;BME280;43423;46.510;6.686;2024-03-08T05:39:21;95777.28;;;1.28;100.00
57594;BME280;43423;46.510;6.686;2024-03-08T05:41:47;95774.97;;;1.26;100.00
57594;BME280;43423;46.510;6.686;2024-03-08T05:44:13;95784.44;;;1.34;100.00
57594;BME280;43423;46.510;6.686;2024-03-08T05:46:39;95776.84;;;1.29;100.00
57594;BME280;43423;46.510;6.686;2024-03-08T05:49:05;95764.69;;;1.34;100.00
57594;BME280;43423;46.510;6.686;2024-03-08T05:51:36;95767.28;;;1.25;100.00
57594;BME280;43423;46.510;6.686;2024-03-08T05:54:06;95762.53;;;1.16;100.00
57594;BME280;43423;46.510;6.686;2024-03-08T05:56:33;95770.88;;;1.22;100.00
57594;BME280;43423;46.510;6.686;2024-03-08T05:58:58;95764.94;;;1.27;100.00
57594;BME280;43423;46.510;6.686;2024-03-08T06:01:25;95769.25;;;1.24;100.00
57594;BME280;43423;46.510;6.686;2024-03-08T06:03:54;95766.63;;;1.33;100.00
57594;BME280;43423;46.510;6.686;2024-03-08T06:06:23;95770.75;;;1.38;100.00
57594;BME280;43423;46.510;6.686;2024-03-08T06:08:50;95763.63;;;1.31;100.00
57594;BME280;43423;46.510;6.686;2024-03-08T06:11:17;95768.81;;;1.38;100.00
57594;BME280;43423;46.510;6.686;2024-03-08T06:13:44;95767.28;;;1.25;100.00
57594;BME280;43423;46.510;6.686;2024-03-08T06:16:10;95763.84;;;1.24;100.00
57594;BME280;43423;46.510;6.686;2024-03-08T06:18:36;95757.00;;;1.32;100.00
57594;BME280;43423;46.510;6.686;2024-03-08T06:21:05;95751.16;;;1.34;100.00
57594;BME280;43423;46.510;6.686;2024-03-08T06:23:35;95744.31;;;1.42;100.00
57594;BME280;43423;46.510;6.686;2024-03-08T06:26:13;95747.69;;;1.46;100.00
57594;BME280;43423;46.510;6.686;2024-03-08T06:28:38;95740.53;;;1.39;100.00
57594;BME280;43423;46.510;6.686;2024-03-08T06:31:04;95748.97;;;1.54;100.00
57594;BME280;43423;46.510;6.686;2024-03-08T06:33:30;95757.09;;;1.42;100.00
57594;BME280;43423;46.510;6.686;2024-03-08T06:35:58;95755.91;;;1.55;100.00
57594;BME280;43423;46.510;6.686;2024-03-08T06:38:24;95762.50;;;1.54;100.00
57594;BME280;43423;46.510;6.686;2024-03-08T06:40:51;95757.31;;;1.60;100.00
57594;BME280;43423;46.510;6.686;2024-03-08T06:43:17;95758.50;;;1.59;100.00
57594;BME280;43423;46.510;6.686;2024-03-08T06:45:44;95758.50;;;1.59;100.00
57594;BME280;43423;46.510;6.686;2024-03-08T06:48:15;95754.38;;;1.67;100.00
57594;BME280;43423;46.510;6.686;2024-03-08T06:50:41;95756.94;;;1.83;100.00
57594;BME280;43423;46.510;6.686;2024-03-08T06:53:06;95739.53;;;2.06;100.00
57594;BME280;43423;46.510;6.686;2024-03-08T06:55:32;95750.78;;;2.39;100.00
57594;BME280;43423;46.510;6.686;2024-03-08T06:57:58;95755.81;;;2.72;100.00
57594;BME280;43423;46.510;6.686;2024-03-08T07:00:24;95759.50;;;2.87;100.00
57594;BME280;43423;46.510;6.686;2024-03-08T07:02:52;95755.63;;;3.28;100.00
57594;BME280;43423;46.510;6.686;2024-03-08T07:05:19;95755.19;;;3.39;100.00
57594;BME280;43423;46.510;6.686;2024-03-08T07:07:45;95750.75;;;3.23;100.00
57594;BME280;43423;46.510;6.686;2024-03-08T07:10:14;95749.41;;;3.19;100.00
57594;BME280;43423;46.510;6.686;2024-03-08T07:12:43;95749.47;;;2.75;100.00
57594;BME280;43423;46.510;6.686;2024-03-08T07:15:09;95752.31;;;2.93;100.00
57594;BME280;43423;46.510;6.686;2024-03-08T07:17:39;95752.63;;;2.95;100.00
57594;BME280;43423;46.510;6.686;2024-03-08T07:20:06;95752.34;;;3.02;100.00
57594;BME280;43423;46.510;6.686;2024-03-08T07:22:37;95752.16;;;2.97;100.00
57594;BME280;43423;46.510;6.686;2024-03-08T07:25:07;95738.47;;;3.00;100.00
57594;BME280;43423;46.510;6.686;2024-03-08T07:27:34;95747.31;;;2.92;100.00
57594;BME280;43423;46.510;6.686;2024-03-08T07:30:03;95744.16;;;2.93;100.00
57594;BME280;43423;46.510;6.686;2024-03-08T07:32:28;95740.38;;;2.91;100.00
57594;BME280;43423;46.510;6.686;2024-03-08T07:34:56;95749.75;;;2.99;100.00
57594;BME280;43423;46.510;6.686;2024-03-08T07:37:21;95753.19;;;2.90;100.00
57594;BME280;43423;46.510;6.686;2024-03-08T07:39:47;95753.09;;;3.03;100.00
57594;BME280;43423;46.510;6.686;2024-03-08T07:42:13;95750.13;;;3.10;100.00
57594;BME280;43423;46.510;6.686;2024-03-08T07:44:39;95755.72;;;3.16;100.00
57594;BME280;43423;46.510;6.686;2024-03-08T07:47:05;95759.63;;;3.15;100.00
57594;BME280;43423;46.510;6.686;2024-03-08T07:49:33;95752.81;;;3.01;100.00
57594;BME280;43423;46.510;6.686;2024-03-08T07:51:59;95750.38;;;3.34;100.00
57594;BME280;43423;46.510;6.686;2024-03-08T07:54:25;95749.25;;;3.22;100.00
57594;BME280;43423;46.510;6.686;2024-03-08T07:56:51;95738.81;;;3.12;100.00
57594;BME280;43423;46.510;6.686;2024-03-08T07:59:18;95737.34;;;3.20;100.00
57594;BME280;43423;46.510;6.686;2024-03-08T08:01:44;95722.28;;;3.37;100.00
57594;BME280;43423;46.510;6.686;2024-03-08T08:04:10;95731.69;;;3.54;100.00
57594;BME280;43423;46.510;6.686;2024-03-08T08:06:38;95742.47;;;3.85;100.00
57594;BME280;43423;46.510;6.686;2024-03-08T08:09:07;95740.84;;;4.43;100.00
57594;BME280;43423;46.510;6.686;2024-03-08T08:11:42;95742.03;;;4.42;100.00
57594;BME280;43423;46.510;6.686;2024-03-08T08:14:10;95734.34;;;5.10;91.57
57594;BME280;43423;46.510;6.686;2024-03-08T08:16:37;95730.91;;;5.67;86.25
57594;BME280;43423;46.510;6.686;2024-03-08T08:19:06;95732.47;;;6.30;83.16
57594;BME280;43423;46.510;6.686;2024-03-08T08:21:34;95736.66;;;5.69;83.71
57594;BME280;43423;46.510;6.686;2024-03-08T08:24:05;95736.66;;;6.02;81.85
57594;BME280;43423;46.510;6.686;2024-03-08T08:26:31;95742.69;;;5.73;82.34
57594;BME280;43423;46.510;6.686;2024-03-08T08:28:58;95740.56;;;5.44;84.63
57594;BME280;43423;46.510;6.686;2024-03-08T08:31:24;95732.25;;;5.71;83.85
57594;BME280;43423;46.510;6.686;2024-03-08T08:33:50;95729.47;;;6.28;81.59
57594;BME280;43423;46.510;6.686;2024-03-08T08:36:19;95721.91;;;6.91;78.99
57594;BME280;43423;46.510;6.686;2024-03-08T08:38:45;95724.03;;;7.17;74.06
57594;BME280;43423;46.510;6.686;2024-03-08T08:41:11;95722.50;;;7.31;75.17
57594;BME280;43423;46.510;6.686;2024-03-08T08:43:36;95716.84;;;7.34;75.36
57594;BME280;43423;46.510;6.686;2024-03-08T08:46:02;95716.50;;;7.62;73.07
57594;BME280;43423;46.510;6.686;2024-03-08T08:48:28;95711.81;;;7.47;73.37
57594;BME280;43423;46.510;6.686;2024-03-08T08:50:54;95704.75;;;7.76;74.86
57594;BME280;43423;46.510;6.686;2024-03-08T08:53:21;95701.75;;;7.94;70.92
57594;BME280;43423;46.510;6.686;2024-03-08T08:55:47;95699.28;;;7.76;71.72
57594;BME280;43423;46.510;6.686;2024-03-08T08:58:13;95704.91;;;8.07;69.18
57594;BME280;43423;46.510;6.686;2024-03-08T09:00:39;95705.34;;;8.26;68.14
57594;BME280;43423;46.510;6.686;2024-03-08T09:03:05;95696.25;;;7.74;68.90
57594;BME280;43423;46.510;6.686;2024-03-08T09:05:32;95689.25;;;7.17;74.91
57594;BME280;43423;46.510;6.686;2024-03-08T09:07:59;95693.63;;;7.44;72.45
57594;BME280;43423;46.510;6.686;2024-03-08T09:10:26;95698.22;;;7.53;68.97
57594;BME280;43423;46.510;6.686;2024-03-08T09:12:51;95684.59;;;7.38;70.49
57594;BME280;43423;46.510;6.686;2024-03-08T09:15:18;95700.97;;;7.03;71.48
57594;BME280;43423;46.510;6.686;2024-03-08T09:17:44;95697.88;;;6.95;73.91
57594;BME280;43423;46.510;6.686;2024-03-08T09:20:10;95673.69;;;7.79;70.10
57594;BME280;43423;46.510;6.686;2024-03-08T09:22:49;95680.97;;;7.82;69.31
57594;BME280;43423;46.510;6.686;2024-03-08T09:25:16;95680.47;;;7.28;69.00
57594;BME280;43423;46.510;6.686;2024-03-08T09:27:42;95685.69;;;7.46;70.03
57594;BME280;43423;46.510;6.686;2024-03-08T09:30:07;95694.13;;;8.04;70.24
57594;BME280;43423;46.510;6.686;2024-03-08T09:32:34;95686.34;;;7.21;70.92
57594;BME280;43423;46.510;6.686;2024-03-08T09:34:59;95678.47;;;8.04;68.67
57594;BME280;43423;46.510;6.686;2024-03-08T09:37:26;95682.75;;;7.15;69.70
57594;BME280;43423;46.510;6.686;2024-03-08T09:39:52;95692.31;;;7.75;71.17
57594;BME280;43423;46.510;6.686;2024-03-08T09:42:18;95687.81;;;7.37;73.25
57594;BME280;43423;46.510;6.686;2024-03-08T09:44:45;95677.69;;;7.43;71.75
57594;BME280;43423;46.510;6.686;2024-03-08T09:47:13;95682.69;;;7.65;70.57
57594;BME280;43423;46.510;6.686;2024-03-08T09:49:40;95672.66;;;7.21;71.41
57594;BME280;43423;46.510;6.686;2024-03-08T09:52:07;95668.34;;;7.70;70.67
57594;BME280;43423;46.510;6.686;2024-03-08T09:54:32;95672.28;;;7.48;72.49
57594;BME280;43423;46.510;6.686;2024-03-08T09:56:59;95667.91;;;7.56;71.23
57594;BME280;43423;46.510;6.686;2024-03-08T09:59:25;95666.63;;;7.72;70.62
57594;BME280;43423;46.510;6.686;2024-03-08T10:01:54;95658.81;;;6.95;72.58
57594;BME280;43423;46.510;6.686;2024-03-08T10:04:24;95649.06;;;7.79;71.83
57594;BME280;43423;46.510;6.686;2024-03-08T10:06:51;95654.69;;;7.90;70.99
57594;BME280;43423;46.510;6.686;2024-03-08T10:09:17;95648.09;;;8.02;69.50
57594;BME280;43423;46.510;6.686;2024-03-08T10:11:45;95637.34;;;7.58;71.38
57594;BME280;43423;46.510;6.686;2024-03-08T10:14:10;95642.50;;;7.91;71.12
57594;BME280;43423;46.510;6.686;2024-03-08T10:16:38;95634.22;;;7.86;68.84
57594;BME280;43423;46.510;6.686;2024-03-08T10:19:04;95628.28;;;7.67;72.37
57594;BME280;43423;46.510;6.686;2024-03-08T10:21:32;95628.69;;;7.60;71.51
57594;BME280;43423;46.510;6.686;2024-03-08T10:24:02;95614.44;;;7.35;71.68
57594;BME280;43423;46.510;6.686;2024-03-08T10:26:28;95621.09;;;7.14;72.32
57594;BME280;43423;46.510;6.686;2024-03-08T10:28:55;95618.84;;;7.68;71.06
57594;BME280;43423;46.510;6.686;2024-03-08T10:31:21;95606.63;;;7.89;71.59
57594;BME280;43423;46.510;6.686;2024-03-08T10:33:47;95603.09;;;7.63;70.78
57594;BME280;43423;46.510;6.686;2024-03-08T10:36:14;95597.88;;;7.65;71.45
57594;BME280;43423;46.510;6.686;2024-03-08T10:38:41;95601.09;;;7.63;71.75
57594;BME280;43423;46.510;6.686;2024-03-08T10:41:09;95597.22;;;7.70;70.33
57594;BME280;43423;46.510;6.686;2024-03-08T10:46:27;95586.53;;;6.61;75.00
57594;BME280;43423;46.510;6.686;2024-03-08T10:48:57;95585.53;;;6.93;74.21
57594;BME280;43423;46.510;6.686;2024-03-08T10:51:25;95582.19;;;6.69;76.11
57594;BME280;43423;46.510;6.686;2024-03-08T10:53:52;95587.22;;;7.26;72.98
57594;BME280;43423;46.510;6.686;2024-03-08T10:56:18;95580.94;;;6.85;75.54
57594;BME280;43423;46.510;6.686;2024-03-08T10:58:44;95577.19;;;6.82;74.52
57594;BME280;43423;46.510;6.686;2024-03-08T11:01:10;95570.28;;;6.87;74.76
57594;BME280;43423;46.510;6.686;2024-03-08T11:06:58;95566.63;;;7.10;74.54
57594;BME280;43423;46.510;6.686;2024-03-08T11:08:59;95558.06;;;6.82;76.26
57594;BME280;43423;46.510;6.686;2024-03-08T11:11:27;95553.19;;;7.27;74.11
57594;BME280;43423;46.510;6.686;2024-03-08T11:13:53;95548.53;;;7.13;74.92
57594;BME280;43423;46.510;6.686;2024-03-08T11:18:54;95536.75;;;6.36;76.01
57594;BME280;43423;46.510;6.686;2024-03-08T11:21:20;95526.66;;;6.57;76.86
57594;BME280;43423;46.510;6.686;2024-03-08T11:24:07;95521.53;;;6.65;76.27
57594;BME280;43423;46.510;6.686;2024-03-08T11:26:33;95500.88;;;6.43;75.59
57594;BME280;43423;46.510;6.686;2024-03-08T11:34:43;95516.09;;;5.76;81.13
57594;BME280;43423;46.510;6.686;2024-03-08T11:37:13;95512.19;;;6.22;79.69
57594;BME280;43423;46.510;6.686;2024-03-08T11:39:46;95499.84;;;6.41;78.17
57594;BME280;43423;46.510;6.686;2024-03-08T11:42:14;95508.91;;;6.03;79.71
57594;BME280;43423;46.510;6.686;2024-03-08T11:44:46;95510.59;;;6.15;80.10
57594;BME280;43423;46.510;6.686;2024-03-08T11:47:13;95497.72;;;6.86;78.25
57594;BME280;43423;46.510;6.686;2024-03-08T11:49:40;95506.22;;;7.08;76.97
57594;BME280;43423;46.510;6.686;2024-03-08T11:52:17;95501.34;;;7.38;75.63
57594;BME280;43423;46.510;6.686;2024-03-08T11:54:49;95499.16;;;7.02;76.00
57594;BME280;43423;46.510;6.686;2024-03-08T11:57:20;95480.31;;;7.04;74.80
57594;BME280;43423;46.510;6.686;2024-03-08T11:59:51;95489.94;;;6.43;78.52
57594;BME280;43423;46.510;6.686;2024-03-08T12:02:17;95479.28;;;6.81;77.64
57594;BME280;43423;46.510;6.686;2024-03-08T12:04:45;95479.78;;;6.99;76.74
57594;BME280;43423;46.510;6.686;2024-03-08T12:07:14;95467.13;;;7.22;77.29
57594;BME280;43423;46.510;6.686;2024-03-08T12:09:44;95460.22;;;7.27;75.67
57594;BME280;43423;46.510;6.686;2024-03-08T12:12:12;95447.19;;;6.96;75.13
57594;BME280;43423;46.510;6.686;2024-03-08T12:14:39;95430.22;;;6.92;77.09
57594;BME280;43423;46.510;6.686;2024-03-08T12:17:08;95430.56;;;6.99;75.73
57594;BME280;43423;46.510;6.686;2024-03-08T12:19:36;95415.66;;;7.00;76.14
57594;BME280;43423;46.510;6.686;2024-03-08T12:22:09;95413.97;;;7.03;76.43
57594;BME280;43423;46.510;6.686;2024-03-08T12:24:35;95417.47;;;6.83;76.71
57594;BME280;43423;46.510;6.686;2024-03-08T12:27:17;95429.78;;;6.73;78.62
57594;BME280;43423;46.510;6.686;2024-03-08T12:29:43;95410.09;;;6.69;78.62
57594;BME280;43423;46.510;6.686;2024-03-08T12:32:08;95419.91;;;6.61;76.81
57594;BME280;43423;46.510;6.686;2024-03-08T12:34:37;95423.50;;;6.87;77.86
57594;BME280;43423;46.510;6.686;2024-03-08T12:37:02;95409.94;;;7.45;75.16
57594;BME280;43423;46.510;6.686;2024-03-08T12:39:30;95397.91;;;7.63;73.91
57594;BME280;43423;46.510;6.686;2024-03-08T12:41:56;95400.00;;;7.47;73.52
57594;BME280;43423;46.510;6.686;2024-03-08T12:44:28;95395.44;;;7.65;74.17
57594;BME280;43423;46.510;6.686;2024-03-08T12:46:54;95401.34;;;7.89;74.98
57594;BME280;43423;46.510;6.686;2024-03-08T12:49:20;95376.63;;;7.46;74.83
57594;BME280;43423;46.510;6.686;2024-03-08T12:51:47;95381.00;;;7.64;75.51
57594;BME280;43423;46.510;6.686;2024-03-08T12:54:14;95374.25;;;7.91;73.67
57594;BME280;43423;46.510;6.686;2024-03-08T12:56:39;95368.00;;;7.53;74.83
57594;BME280;43423;46.510;6.686;2024-03-08T12:59:07;95371.59;;;7.71;73.98
57594;BME280;43423;46.510;6.686;2024-03-08T13:01:33;95367.00;;;7.88;73.56
57594;BME280;43423;46.510;6.686;2024-03-08T13:04:00;95359.28;;;8.24;72.45
57594;BME280;43423;46.510;6.686;2024-03-08T13:06:29;95351.34;;;7.89;73.64
57594;BME280;43423;46.510;6.686;2024-03-08T13:08:57;95349.34;;;7.89;73.77
57594;BME280;43423;46.510;6.686;2024-03-08T13:11:23;95340.75;;;7.39;74.16
57594;BME280;43423;46.510;6.686;2024-03-08T13:13:50;95342.50;;;7.68;74.23
57594;BME280;43423;46.510;6.686;2024-03-08T13:16:16;95340.66;;;7.91;74.70
57594;BME280;43423;46.510;6.686;2024-03-08T13:18:43;95329.59;;;7.42;74.97